sensor_id;sensor_type;location;lat;lon;timestamp;P1;durP1;ratioP1;P2;durP2;ratioP2
7957;SDS011;4024;52.172;5.378;2023-07-02T00:02:21;7.33;;;4.50;;
7957;SDS011;4024;52.172;5.378;2023-07-02T00:04:47;8.47;;;4.33;;
7957;SDS011;4024;52.172;5.378;2023-07-02T00:07:12;10.73;;;4.97;;
7957;SDS011;4024;52.172;5.378;2023-07-02T00:09:39;8.03;;;4.43;;
7957;SDS011;4024;52.172;5.378;2023-07-02T00:12:05;6.73;;;4.43;;
7957;SDS011;4024;52.172;5.378;2023-07-02T00:14:31;14.77;;;5.07;;
7957;SDS011;4024;52.172;5.378;2023-07-02T00:16:58;7.07;;;4.63;;
7957;SDS011;4024;52.172;5.378;2023-07-02T00:19:24;9.03;;;5.30;;
7957;SDS011;4024;52.172;5.378;2023-07-02T00:21:49;8.50;;;5.07;;
7957;SDS011;4024;52.172;5.378;2023-07-02T00:24:15;10.60;;;5.20;;
7957;SDS011;4024;52.172;5.378;2023-07-02T00:26:41;8.23;;;5.57;;
7957;SDS011;4024;52.172;5.378;2023-07-02T00:29:07;8.63;;;5.23;;
7957;SDS011;4024;52.172;5.378;2023-07-02T00:31:35;12.90;;;5.57;;
7957;SDS011;4024;52.172;5.378;2023-07-02T00:34:01;9.97;;;5.70;;
7957;SDS011;4024;52.172;5.378;2023-07-02T00:36:28;11.30;;;5.70;;
7957;SDS011;4024;52.172;5.378;2023-07-02T00:38:54;11.57;;;5.50;;
7957;SDS011;4024;52.172;5.378;2023-07-02T00:41:20;9.23;;;5.70;;
7957;SDS011;4024;52.172;5.378;2023-07-02T00:43:45;8.73;;;5.93;;
7957;SDS011;4024;52.172;5.378;2023-07-02T00:46:12;10.03;;;5.93;;
7957;SDS011;4024;52.172;5.378;2023-07-02T00:48:46;15.77;;;6.17;;
7957;SDS011;4024;52.172;5.378;2023-07-02T00:51:16;10.30;;;6.63;;
7957;SDS011;4024;52.172;5.378;2023-07-02T00:53:46;14.17;;;6.67;;
7957;SDS011;4024;52.172;5.378;2023-07-02T00:56:13;16.97;;;7.37;;
7957;SDS011;4024;52.172;5.378;2023-07-02T00:58:40;11.83;;;6.50;;
7957;SDS011;4024;52.172;5.378;2023-07-02T01:01:12;18.73;;;7.43;;
7957;SDS011;4024;52.172;5.378;2023-07-02T01:03:54;13.03;;;7.00;;
7957;SDS011;4024;52.172;5.378;2023-07-02T01:06:24;13.13;;;7.30;;
7957;SDS011;4024;52.172;5.378;2023-07-02T01:08:55;13.80;;;7.30;;
7957;SDS011;4024;52.172;5.378;2023-07-02T01:11:24;13.67;;;7.37;;
7957;SDS011;4024;52.172;5.378;2023-07-02T01:13:57;11.87;;;7.43;;
7957;SDS011;4024;52.172;5.378;2023-07-02T01:16:27;15.47;;;7.90;;
7957;SDS011;4024;52.172;5.378;2023-07-02T01:18:55;15.80;;;7.50;;
7957;SDS011;4024;52.172;5.378;2023-07-02T01:21:22;12.00;;;7.10;;
7957;SDS011;4024;52.172;5.378;2023-07-02T01:23:49;13.40;;;7.73;;
7957;SDS011;4024;52.172;5.378;2023-07-02T01:26:15;13.50;;;7.67;;
7957;SDS011;4024;52.172;5.378;2023-07-02T01:28:41;18.17;;;8.00;;
7957;SDS011;4024;52.172;5.378;2023-07-02T01:31:06;18.47;;;7.87;;
7957;SDS011;4024;52.172;5.378;2023-07-02T01:33:32;12.67;;;7.27;;
7957;SDS011;4024;52.172;5.378;2023-07-02T01:35:58;12.63;;;6.90;;
7957;SDS011;4024;52.172;5.378;2023-07-02T01:38:23;15.63;;;7.33;;
7957;SDS011;4024;52.172;5.378;2023-07-02T01:40:49;16.37;;;7.80;;
7957;SDS011;4024;52.172;5.378;2023-07-02T01:43:14;14.43;;;8.23;;
7957;SDS011;4024;52.172;5.378;2023-07-02T01:45:43;17.20;;;7.47;;
7957;SDS011;4024;52.172;5.378;2023-07-02T01:48:08;16.57;;;7.80;;
7957;SDS011;4024;52.172;5.378;2023-07-02T01:50:34;16.53;;;7.93;;
7957;SDS011;4024;52.172;5.378;2023-07-02T01:53:00;15.57;;;7.83;;
7957;SDS011;4024;52.172;5.378;2023-07-02T01:55:25;11.87;;;7.87;;
7957;SDS011;4024;52.172;5.378;2023-07-02T01:57:51;16.57;;;8.20;;
7957;SDS011;4024;52.172;5.378;2023-07-02T02:00:16;17.27;;;8.30;;
7957;SDS011;4024;52.172;5.378;2023-07-02T02:02:42;12.27;;;7.53;;
7957;SDS011;4024;52.172;5.378;2023-07-02T02:05:08;15.57;;;7.87;;
7957;SDS011;4024;52.172;5.378;2023-07-02T02:07:34;13.07;;;7.47;;
7957;SDS011;4024;52.172;5.378;2023-07-02T02:10:03;14.90;;;7.97;;
7957;SDS011;4024;52.172;5.378;2023-07-02T02:12:29;15.53;;;7.67;;
7957;SDS011;4024;52.172;5.378;2023-07-02T02:14:55;17.20;;;8.33;;
7957;SDS011;4024;52.172;5.378;2023-07-02T02:17:22;18.77;;;8.43;;
7957;SDS011;4024;52.172;5.378;2023-07-02T02:19:49;15.73;;;8.00;;
7957;SDS011;4024;52.172;5.378;2023-07-02T02:22:14;18.43;;;8.60;;
7957;SDS011;4024;52.172;5.378;2023-07-02T02:24:40;21.80;;;8.93;;
7957;SDS011;4024;52.172;5.378;2023-07-02T02:27:06;17.50;;;9.00;;
7957;SDS011;4024;52.172;5.378;2023-07-02T02:29:32;14.57;;;8.73;;
7957;SDS011;4024;52.172;5.378;2023-07-02T02:31:58;16.27;;;8.43;;
7957;SDS011;4024;52.172;5.378;2023-07-02T02:34:23;17.93;;;8.63;;
7957;SDS011;4024;52.172;5.378;2023-07-02T02:36:49;15.30;;;8.07;;
7957;SDS011;4024;52.172;5.378;2023-07-02T02:39:15;16.00;;;8.30;;
7957;SDS011;4024;52.172;5.378;2023-07-02T02:41:40;17.40;;;8.43;;
7957;SDS011;4024;52.172;5.378;2023-07-02T02:44:06;14.27;;;8.63;;
7957;SDS011;4024;52.172;5.378;2023-07-02T02:46:32;21.37;;;9.03;;
7957;SDS011;4024;52.172;5.378;2023-07-02T02:48:58;16.93;;;9.43;;
7957;SDS011;4024;52.172;5.378;2023-07-02T02:51:23;18.13;;;8.30;;
7957;SDS011;4024;52.172;5.378;2023-07-02T02:53:49;19.27;;;9.03;;
7957;SDS011;4024;52.172;5.378;2023-07-02T02:56:15;16.63;;;8.53;;
7957;SDS011;4024;52.172;5.378;2023-07-02T02:58:41;14.77;;;8.43;;
7957;SDS011;4024;52.172;5.378;2023-07-02T03:01:06;18.50;;;9.03;;
7957;SDS011;4024;52.172;5.378;2023-07-02T03:03:36;14.77;;;7.40;;
7957;SDS011;4024;52.172;5.378;2023-07-02T03:06:04;18.17;;;8.53;;
7957;SDS011;4024;52.172;5.378;2023-07-02T03:08:30;17.67;;;8.30;;
7957;SDS011;4024;52.172;5.378;2023-07-02T03:10:56;17.53;;;8.77;;
7957;SDS011;4024;52.172;5.378;2023-07-02T03:13:22;19.63;;;8.50;;
7957;SDS011;4024;52.172;5.378;2023-07-02T03:15:47;16.40;;;8.60;;
7957;SDS011;4024;52.172;5.378;2023-07-02T03:18:13;21.90;;;9.50;;
7957;SDS011;4024;52.172;5.378;2023-07-02T03:20:38;15.53;;;8.20;;
7957;SDS011;4024;52.172;5.378;2023-07-02T03:23:04;19.93;;;8.63;;
7957;SDS011;4024;52.172;5.378;2023-07-02T03:25:30;16.73;;;8.93;;
7957;SDS011;4024;52.172;5.378;2023-07-02T03:27:55;17.93;;;8.40;;
7957;SDS011;4024;52.172;5.378;2023-07-02T03:30:21;17.87;;;8.07;;
7957;SDS011;4024;52.172;5.378;2023-07-02T03:32:46;16.23;;;8.90;;
7957;SDS011;4024;52.172;5.378;2023-07-02T03:35:12;16.70;;;8.70;;
7957;SDS011;4024;52.172;5.378;2023-07-02T03:37:38;17.60;;;8.87;;
7957;SDS011;4024;52.172;5.378;2023-07-02T03:40:06;21.77;;;8.77;;
7957;SDS011;4024;52.172;5.378;2023-07-02T03:42:32;17.83;;;9.23;;
7957;SDS011;4024;52.172;5.378;2023-07-02T03:44:58;17.77;;;8.97;;
7957;SDS011;4024;52.172;5.378;2023-07-02T03:47:24;16.50;;;8.47;;
7957;SDS011;4024;52.172;5.378;2023-07-02T03:49:50;18.23;;;8.63;;
7957;SDS011;4024;52.172;5.378;2023-07-02T03:52:15;17.50;;;8.40;;
7957;SDS011;4024;52.172;5.378;2023-07-02T03:54:41;16.60;;;8.47;;
7957;SDS011;4024;52.172;5.378;2023-07-02T03:57:06;18.63;;;8.87;;
7957;SDS011;4024;52.172;5.378;2023-07-02T03:59:32;18.33;;;9.00;;
7957;SDS011;4024;52.172;5.378;2023-07-02T04:01:58;16.23;;;8.57;;
7957;SDS011;4024;52.172;5.378;2023-07-02T04:04:24;22.07;;;8.80;;
7957;SDS011;4024;52.172;5.378;2023-07-02T04:06:49;20.00;;;9.53;;
7957;SDS011;4024;52.172;5.378;2023-07-02T04:09:15;23.57;;;9.47;;
7957;SDS011;4024;52.172;5.378;2023-07-02T04:11:40;17.57;;;8.90;;
7957;SDS011;4024;52.172;5.378;2023-07-02T04:14:06;21.23;;;8.37;;
7957;SDS011;4024;52.172;5.378;2023-07-02T04:16:31;16.33;;;8.70;;
7957;SDS011;4024;52.172;5.378;2023-07-02T04:18:57;20.03;;;9.20;;
7957;SDS011;4024;52.172;5.378;2023-07-02T04:21:22;21.47;;;9.57;;
7957;SDS011;4024;52.172;5.378;2023-07-02T04:23:48;18.43;;;8.73;;
7957;SDS011;4024;52.172;5.378;2023-07-02T04:26:14;19.13;;;8.23;;
7957;SDS011;4024;52.172;5.378;2023-07-02T04:28:39;15.53;;;8.80;;
7957;SDS011;4024;52.172;5.378;2023-07-02T04:31:05;15.93;;;8.67;;
7957;SDS011;4024;52.172;5.378;2023-07-02T04:33:30;19.00;;;8.53;;
7957;SDS011;4024;52.172;5.378;2023-07-02T04:36:01;17.03;;;8.87;;
7957;SDS011;4024;52.172;5.378;2023-07-02T04:38:27;19.33;;;9.40;;
7957;SDS011;4024;52.172;5.378;2023-07-02T04:40:53;19.90;;;8.77;;
7957;SDS011;4024;52.172;5.378;2023-07-02T04:43:19;19.57;;;10.00;;
7957;SDS011;4024;52.172;5.378;2023-07-02T04:45:44;18.77;;;9.17;;
7957;SDS011;4024;52.172;5.378;2023-07-02T04:48:10;21.20;;;8.87;;
7957;SDS011;4024;52.172;5.378;2023-07-02T04:50:35;18.17;;;8.60;;
7957;SDS011;4024;52.172;5.378;2023-07-02T04:53:01;20.90;;;9.03;;
7957;SDS011;4024;52.172;5.378;2023-07-02T04:55:27;20.20;;;8.63;;
7957;SDS011;4024;52.172;5.378;2023-07-02T04:57:52;18.40;;;9.30;;
7957;SDS011;4024;52.172;5.378;2023-07-02T05:00:18;18.57;;;9.53;;
7957;SDS011;4024;52.172;5.378;2023-07-02T05:02:44;20.63;;;9.43;;
7957;SDS011;4024;52.172;5.378;2023-07-02T05:05:09;19.30;;;9.37;;
7957;SDS011;4024;52.172;5.378;2023-07-02T05:07:35;18.17;;;8.73;;
7957;SDS011;4024;52.172;5.378;2023-07-02T05:10:01;18.23;;;8.93;;
7957;SDS011;4024;52.172;5.378;2023-07-02T05:12:26;17.73;;;8.90;;
7957;SDS011;4024;52.172;5.378;2023-07-02T05:14:52;21.97;;;8.93;;
7957;SDS011;4024;52.172;5.378;2023-07-02T05:17:17;18.93;;;8.70;;
7957;SDS011;4024;52.172;5.378;2023-07-02T05:19:43;23.40;;;9.00;;
7957;SDS011;4024;52.172;5.378;2023-07-02T05:22:09;17.20;;;9.20;;
7957;SDS011;4024;52.172;5.378;2023-07-02T05:24:35;18.23;;;8.23;;
7957;SDS011;4024;52.172;5.378;2023-07-02T05:27:01;16.93;;;7.97;;
7957;SDS011;4024;52.172;5.378;2023-07-02T05:29:27;15.63;;;8.60;;
7957;SDS011;4024;52.172;5.378;2023-07-02T05:31:52;17.50;;;8.87;;
7957;SDS011;4024;52.172;5.378;2023-07-02T05:34:18;15.53;;;7.73;;
7957;SDS011;4024;52.172;5.378;2023-07-02T05:36:43;12.20;;;7.70;;
7957;SDS011;4024;52.172;5.378;2023-07-02T05:39:09;15.47;;;7.97;;
7957;SDS011;4024;52.172;5.378;2023-07-02T05:41:34;16.97;;;8.33;;
7957;SDS011;4024;52.172;5.378;2023-07-02T05:44:00;15.67;;;7.80;;
7957;SDS011;4024;52.172;5.378;2023-07-02T05:46:26;16.13;;;8.20;;
7957;SDS011;4024;52.172;5.378;2023-07-02T05:48:51;15.80;;;8.00;;
7957;SDS011;4024;52.172;5.378;2023-07-02T05:51:20;15.23;;;8.13;;
7957;SDS011;4024;52.172;5.378;2023-07-02T05:53:49;17.03;;;8.30;;
7957;SDS011;4024;52.172;5.378;2023-07-02T05:56:15;13.77;;;7.43;;
7957;SDS011;4024;52.172;5.378;2023-07-02T05:58:42;12.50;;;7.40;;
7957;SDS011;4024;52.172;5.378;2023-07-02T06:01:08;15.57;;;7.40;;
7957;SDS011;4024;52.172;5.378;2023-07-02T06:03:33;15.77;;;7.63;;
7957;SDS011;4024;52.172;5.378;2023-07-02T06:05:59;12.77;;;7.13;;
7957;SDS011;4024;52.172;5.378;2023-07-02T06:08:25;16.50;;;7.83;;
7957;SDS011;4024;52.172;5.378;2023-07-02T06:10:50;14.50;;;7.17;;
7957;SDS011;4024;52.172;5.378;2023-07-02T06:13:16;13.73;;;7.37;;
7957;SDS011;4024;52.172;5.378;2023-07-02T06:15:42;12.23;;;6.83;;
7957;SDS011;4024;52.172;5.378;2023-07-02T06:18:09;14.27;;;6.93;;
7957;SDS011;4024;52.172;5.378;2023-07-02T06:20:34;13.57;;;6.80;;
7957;SDS011;4024;52.172;5.378;2023-07-02T06:23:00;13.77;;;7.40;;
7957;SDS011;4024;52.172;5.378;2023-07-02T06:25:26;15.97;;;7.40;;
7957;SDS011;4024;52.172;5.378;2023-07-02T06:27:51;11.33;;;6.47;;
7957;SDS011;4024;52.172;5.378;2023-07-02T06:30:19;11.10;;;6.77;;
7957;SDS011;4024;52.172;5.378;2023-07-02T06:32:46;13.77;;;7.57;;
7957;SDS011;4024;52.172;5.378;2023-07-02T06:35:11;13.83;;;7.17;;
7957;SDS011;4024;52.172;5.378;2023-07-02T06:37:37;13.33;;;6.50;;
7957;SDS011;4024;52.172;5.378;2023-07-02T06:40:04;10.80;;;6.30;;
7957;SDS011;4024;52.172;5.378;2023-07-02T06:42:30;11.17;;;6.43;;
7957;SDS011;4024;52.172;5.378;2023-07-02T06:44:56;14.23;;;5.90;;
7957;SDS011;4024;52.172;5.378;2023-07-02T06:47:22;12.87;;;6.70;;
7957;SDS011;4024;52.172;5.378;2023-07-02T06:49:47;12.97;;;7.27;;
7957;SDS011;4024;52.172;5.378;2023-07-02T06:52:13;11.03;;;5.93;;
7957;SDS011;4024;52.172;5.378;2023-07-02T06:54:38;12.07;;;6.27;;
7957;SDS011;4024;52.172;5.378;2023-07-02T06:57:04;17.37;;;7.10;;
7957;SDS011;4024;52.172;5.378;2023-07-02T06:59:30;12.77;;;6.23;;
7957;SDS011;4024;52.172;5.378;2023-07-02T07:01:56;10.97;;;6.90;;
7957;SDS011;4024;52.172;5.378;2023-07-02T07:04:21;9.97;;;6.17;;
7957;SDS011;4024;52.172;5.378;2023-07-02T07:06:47;11.00;;;6.03;;
7957;SDS011;4024;52.172;5.378;2023-07-02T07:09:13;13.77;;;6.50;;
7957;SDS011;4024;52.172;5.378;2023-07-02T07:11:38;13.33;;;6.03;;
7957;SDS011;4024;52.172;5.378;2023-07-02T07:14:04;11.00;;;5.93;;
7957;SDS011;4024;52.172;5.378;2023-07-02T07:16:29;13.10;;;6.07;;
7957;SDS011;4024;52.172;5.378;2023-07-02T07:18:55;10.53;;;6.37;;
7957;SDS011;4024;52.172;5.378;2023-07-02T07:21:20;11.30;;;6.13;;
7957;SDS011;4024;52.172;5.378;2023-07-02T07:23:50;10.43;;;6.13;;
7957;SDS011;4024;52.172;5.378;2023-07-02T07:26:16;16.93;;;6.10;;
7957;SDS011;4024;52.172;5.378;2023-07-02T07:28:42;12.60;;;5.53;;
7957;SDS011;4024;52.172;5.378;2023-07-02T07:31:07;10.37;;;5.90;;
7957;SDS011;4024;52.172;5.378;2023-07-02T07:33:33;11.57;;;5.70;;
7957;SDS011;4024;52.172;5.378;2023-07-02T07:35:58;11.00;;;4.97;;
7957;SDS011;4024;52.172;5.378;2023-07-02T07:38:25;10.67;;;6.20;;
7957;SDS011;4024;52.172;5.378;2023-07-02T07:40:51;8.67;;;5.50;;
7957;SDS011;4024;52.172;5.378;2023-07-02T07:43:16;11.27;;;5.83;;
7957;SDS011;4024;52.172;5.378;2023-07-02T07:45:43;8.27;;;4.80;;
7957;SDS011;4024;52.172;5.378;2023-07-02T07:48:09;9.70;;;5.50;;
7957;SDS011;4024;52.172;5.378;2023-07-02T07:50:34;11.77;;;5.50;;
7957;SDS011;4024;52.172;5.378;2023-07-02T07:53:00;10.03;;;5.10;;
7957;SDS011;4024;52.172;5.378;2023-07-02T07:55:25;12.20;;;5.83;;
7957;SDS011;4024;52.172;5.378;2023-07-02T07:57:51;9.60;;;5.20;;
7957;SDS011;4024;52.172;5.378;2023-07-02T08:00:17;10.03;;;5.57;;
7957;SDS011;4024;52.172;5.378;2023-07-02T08:02:46;10.57;;;5.63;;
7957;SDS011;4024;52.172;5.378;2023-07-02T08:05:12;10.03;;;5.03;;
7957;SDS011;4024;52.172;5.378;2023-07-02T08:07:38;12.23;;;5.87;;
7957;SDS011;4024;52.172;5.378;2023-07-02T08:10:05;12.43;;;5.80;;
7957;SDS011;4024;52.172;5.378;2023-07-02T08:12:32;9.10;;;4.90;;
7957;SDS011;4024;52.172;5.378;2023-07-02T08:14:58;9.73;;;5.50;;
7957;SDS011;4024;52.172;5.378;2023-07-02T08:17:24;13.33;;;5.67;;
7957;SDS011;4024;52.172;5.378;2023-07-02T08:19:50;7.90;;;5.53;;
7957;SDS011;4024;52.172;5.378;2023-07-02T08:22:15;12.47;;;6.23;;
7957;SDS011;4024;52.172;5.378;2023-07-02T08:24:41;13.07;;;6.20;;
7957;SDS011;4024;52.172;5.378;2023-07-02T08:27:07;13.50;;;5.90;;
7957;SDS011;4024;52.172;5.378;2023-07-02T08:29:32;12.57;;;6.43;;
7957;SDS011;4024;52.172;5.378;2023-07-02T08:31:58;11.97;;;6.47;;
7957;SDS011;4024;52.172;5.378;2023-07-02T08:34:23;11.27;;;6.00;;
7957;SDS011;4024;52.172;5.378;2023-07-02T08:36:49;11.73;;;5.47;;
7957;SDS011;4024;52.172;5.378;2023-07-02T08:39:16;10.10;;;6.10;;
7957;SDS011;4024;52.172;5.378;2023-07-02T08:41:43;10.27;;;5.80;;
7957;SDS011;4024;52.172;5.378;2023-07-02T08:44:10;10.83;;;5.67;;
7957;SDS011;4024;52.172;5.378;2023-07-02T08:46:40;11.87;;;5.30;;
7957;SDS011;4024;52.172;5.378;2023-07-02T08:49:07;11.27;;;6.07;;
7957;SDS011;4024;52.172;5.378;2023-07-02T08:51:33;12.67;;;5.47;;
7957;SDS011;4024;52.172;5.378;2023-07-02T08:53:59;9.47;;;5.50;;
7957;SDS011;4024;52.172;5.378;2023-07-02T08:56:26;12.30;;;5.77;;
7957;SDS011;4024;52.172;5.378;2023-07-02T08:58:52;9.80;;;5.80;;
7957;SDS011;4024;52.172;5.378;2023-07-02T09:01:18;9.87;;;5.90;;
7957;SDS011;4024;52.172;5.378;2023-07-02T09:03:44;11.87;;;6.47;;
7957;SDS011;4024;52.172;5.378;2023-07-02T09:06:10;10.07;;;5.77;;
7957;SDS011;4024;52.172;5.378;2023-07-02T09:08:38;10.40;;;5.40;;
7957;SDS011;4024;52.172;5.378;2023-07-02T09:11:13;8.27;;;4.53;;
7957;SDS011;4024;52.172;5.378;2023-07-02T09:13:51;12.33;;;5.50;;
7957;SDS011;4024;52.172;5.378;2023-07-02T09:16:26;10.37;;;4.93;;
7957;SDS011;4024;52.172;5.378;2023-07-02T09:19:02;7.13;;;4.37;;
7957;SDS011;4024;52.172;5.378;2023-07-02T09:21:45;9.40;;;4.77;;
7957;SDS011;4024;52.172;5.378;2023-07-02T09:24:14;8.60;;;4.60;;
7957;SDS011;4024;52.172;5.378;2023-07-02T09:26:45;8.03;;;4.60;;
7957;SDS011;4024;52.172;5.378;2023-07-02T09:29:12;7.77;;;4.43;;
7957;SDS011;4024;52.172;5.378;2023-07-02T09:31:44;10.87;;;4.53;;
7957;SDS011;4024;52.172;5.378;2023-07-02T09:34:13;6.97;;;4.00;;
7957;SDS011;4024;52.172;5.378;2023-07-02T09:36:39;5.17;;;3.90;;
7957;SDS011;4024;52.172;5.378;2023-07-02T09:39:10;9.37;;;4.33;;
7957;SDS011;4024;52.172;5.378;2023-07-02T09:41:44;6.60;;;3.60;;
7957;SDS011;4024;52.172;5.378;2023-07-02T09:44:13;10.40;;;4.07;;
7957;SDS011;4024;52.172;5.378;2023-07-02T09:46:42;11.43;;;3.93;;
7957;SDS011;4024;52.172;5.378;2023-07-02T09:49:23;7.97;;;4.13;;
7957;SDS011;4024;52.172;5.378;2023-07-02T09:51:50;8.00;;;4.10;;
7957;SDS011;4024;52.172;5.378;2023-07-02T09:54:16;8.47;;;4.27;;
7957;SDS011;4024;52.172;5.378;2023-07-02T09:56:45;6.13;;;3.70;;
7957;SDS011;4024;52.172;5.378;2023-07-02T09:59:11;6.70;;;3.70;;
7957;SDS011;4024;52.172;5.378;2023-07-02T10:01:37;7.47;;;4.10;;
7957;SDS011;4024;52.172;5.378;2023-07-02T10:04:12;7.20;;;4.00;;
7957;SDS011;4024;52.172;5.378;2023-07-02T10:06:47;6.97;;;4.03;;
7957;SDS011;4024;52.172;5.378;2023-07-02T10:09:15;7.60;;;4.00;;
7957;SDS011;4024;52.172;5.378;2023-07-02T10:11:42;6.63;;;3.73;;
7957;SDS011;4024;52.172;5.378;2023-07-02T10:14:07;6.03;;;3.80;;
7957;SDS011;4024;52.172;5.378;2023-07-02T10:16:33;7.10;;;3.87;;
7957;SDS011;4024;52.172;5.378;2023-07-02T10:19:11;5.47;;;3.67;;
7957;SDS011;4024;52.172;5.378;2023-07-02T10:21:37;7.00;;;3.50;;
7957;SDS011;4024;52.172;5.378;2023-07-02T10:24:12;5.33;;;3.73;;
7957;SDS011;4024;52.172;5.378;2023-07-02T10:26:50;7.37;;;4.37;;
7957;SDS011;4024;52.172;5.378;2023-07-02T10:29:21;5.00;;;3.33;;
7957;SDS011;4024;52.172;5.378;2023-07-02T10:31:50;6.77;;;3.80;;
7957;SDS011;4024;52.172;5.378;2023-07-02T10:34:29;6.43;;;3.37;;
7957;SDS011;4024;52.172;5.378;2023-07-02T10:36:55;5.40;;;3.70;;
7957;SDS011;4024;52.172;5.378;2023-07-02T10:39:21;6.47;;;3.37;;
7957;SDS011;4024;52.172;5.378;2023-07-02T10:41:47;7.57;;;3.93;;
7957;SDS011;4024;52.172;5.378;2023-07-02T10:44:14;8.93;;;4.07;;
7957;SDS011;4024;52.172;5.378;2023-07-02T10:46:47;6.87;;;3.87;;
7957;SDS011;4024;52.172;5.378;2023-07-02T10:49:13;7.70;;;3.80;;
7957;SDS011;4024;52.172;5.378;2023-07-02T10:51:41;4.70;;;3.50;;
7957;SDS011;4024;52.172;5.378;2023-07-02T10:54:07;7.20;;;3.97;;
7957;SDS011;4024;52.172;5.378;2023-07-02T10:56:34;5.73;;;4.00;;
7957;SDS011;4024;52.172;5.378;2023-07-02T10:59:00;9.03;;;3.77;;
7957;SDS011;4024;52.172;5.378;2023-07-02T11:01:29;8.87;;;4.40;;
7957;SDS011;4024;52.172;5.378;2023-07-02T11:03:57;5.97;;;3.50;;
7957;SDS011;4024;52.172;5.378;2023-07-02T11:06:27;8.07;;;4.10;;
7957;SDS011;4024;52.172;5.378;2023-07-02T11:08:53;5.67;;;3.77;;
7957;SDS011;4024;52.172;5.378;2023-07-02T11:11:20;8.40;;;4.00;;
7957;SDS011;4024;52.172;5.378;2023-07-02T11:13:48;6.57;;;3.93;;
7957;SDS011;4024;52.172;5.378;2023-07-02T11:16:24;6.40;;;4.03;;
7957;SDS011;4024;52.172;5.378;2023-07-02T11:18:52;6.77;;;3.53;;
7957;SDS011;4024;52.172;5.378;2023-07-02T11:21:18;7.43;;;4.03;;
7957;SDS011;4024;52.172;5.378;2023-07-02T11:23:44;6.70;;;3.97;;
7957;SDS011;4024;52.172;5.378;2023-07-02T11:26:10;6.63;;;3.80;;
7957;SDS011;4024;52.172;5.378;2023-07-02T11:28:35;7.30;;;4.30;;
7957;SDS011;4024;52.172;5.378;2023-07-02T11:31:02;7.90;;;4.70;;
7957;SDS011;4024;52.172;5.378;2023-07-02T11:36:03;8.73;;;4.37;;
7957;SDS011;4024;52.172;5.378;2023-07-02T11:38:29;7.43;;;4.20;;
7957;SDS011;4024;52.172;5.378;2023-07-02T11:40:55;6.67;;;4.40;;
7957;SDS011;4024;52.172;5.378;2023-07-02T11:43:20;7.10;;;4.37;;
7957;SDS011;4024;52.172;5.378;2023-07-02T11:45:46;7.50;;;5.10;;
7957;SDS011;4024;52.172;5.378;2023-07-02T11:48:12;6.33;;;3.83;;
7957;SDS011;4024;52.172;5.378;2023-07-02T11:50:37;7.10;;;4.53;;
7957;SDS011;4024;52.172;5.378;2023-07-02T11:53:03;7.73;;;4.60;;
7957;SDS011;4024;52.172;5.378;2023-07-02T11:55:29;7.73;;;4.07;;
7957;SDS011;4024;52.172;5.378;2023-07-02T11:57:55;7.70;;;4.67;;
7957;SDS011;4024;52.172;5.378;2023-07-02T12:00:20;9.60;;;4.70;;
7957;SDS011;4024;52.172;5.378;2023-07-02T12:02:46;7.27;;;4.30;;
7957;SDS011;4024;52.172;5.378;2023-07-02T12:05:12;7.10;;;4.50;;
7957;SDS011;4024;52.172;5.378;2023-07-02T12:07:37;10.07;;;4.27;;
7957;SDS011;4024;52.172;5.378;2023-07-02T12:10:03;8.47;;;4.53;;
7957;SDS011;4024;52.172;5.378;2023-07-02T12:12:29;6.70;;;4.23;;
7957;SDS011;4024;52.172;5.378;2023-07-02T12:14:54;9.77;;;4.50;;
7957;SDS011;4024;52.172;5.378;2023-07-02T12:17:20;6.73;;;3.90;;
7957;SDS011;4024;52.172;5.378;2023-07-02T12:19:46;8.67;;;4.30;;
7957;SDS011;4024;52.172;5.378;2023-07-02T12:22:12;7.57;;;4.30;;
7957;SDS011;4024;52.172;5.378;2023-07-02T12:24:41;6.43;;;4.47;;
7957;SDS011;4024;52.172;5.378;2023-07-02T12:27:08;9.83;;;4.77;;
7957;SDS011;4024;52.172;5.378;2023-07-02T12:29:35;7.10;;;4.20;;
7957;SDS011;4024;52.172;5.378;2023-07-02T12:32:01;8.17;;;4.60;;
7957;SDS011;4024;52.172;5.378;2023-07-02T12:34:27;6.97;;;4.03;;
7957;SDS011;4024;52.172;5.378;2023-07-02T12:36:54;8.27;;;4.53;;
7957;SDS011;4024;52.172;5.378;2023-07-02T12:39:19;6.93;;;4.27;;
7957;SDS011;4024;52.172;5.378;2023-07-02T12:41:45;10.50;;;5.20;;
7957;SDS011;4024;52.172;5.378;2023-07-02T12:44:11;6.33;;;4.50;;
7957;SDS011;4024;52.172;5.378;2023-07-02T12:46:36;6.00;;;3.80;;
7957;SDS011;4024;52.172;5.378;2023-07-02T12:49:02;9.20;;;4.87;;
7957;SDS011;4024;52.172;5.378;2023-07-02T12:51:27;7.20;;;4.93;;
7957;SDS011;4024;52.172;5.378;2023-07-02T12:53:53;11.40;;;5.13;;
7957;SDS011;4024;52.172;5.378;2023-07-02T12:56:18;8.70;;;5.17;;
7957;SDS011;4024;52.172;5.378;2023-07-02T12:58:44;7.87;;;4.70;;
7957;SDS011;4024;52.172;5.378;2023-07-02T13:01:10;8.57;;;4.37;;
7957;SDS011;4024;52.172;5.378;2023-07-02T13:03:35;8.60;;;4.73;;
7957;SDS011;4024;52.172;5.378;2023-07-02T13:06:01;7.37;;;4.47;;
7957;SDS011;4024;52.172;5.378;2023-07-02T13:08:27;8.07;;;4.60;;
7957;SDS011;4024;52.172;5.378;2023-07-02T13:10:52;8.23;;;4.90;;
7957;SDS011;4024;52.172;5.378;2023-07-02T13:13:18;8.53;;;5.03;;
7957;SDS011;4024;52.172;5.378;2023-07-02T13:15:44;6.53;;;4.73;;
7957;SDS011;4024;52.172;5.378;2023-07-02T13:18:09;7.57;;;4.67;;
7957;SDS011;4024;52.172;5.378;2023-07-02T13:20:35;8.07;;;4.87;;
7957;SDS011;4024;52.172;5.378;2023-07-02T13:23:00;10.03;;;5.33;;
7957;SDS011;4024;52.172;5.378;2023-07-02T13:25:27;6.40;;;4.60;;
7957;SDS011;4024;52.172;5.378;2023-07-02T13:27:53;6.77;;;4.67;;
7957;SDS011;4024;52.172;5.378;2023-07-02T13:30:19;7.30;;;5.03;;
7957;SDS011;4024;52.172;5.378;2023-07-02T13:32:45;8.43;;;4.30;;
7957;SDS011;4024;52.172;5.378;2023-07-02T13:35:11;7.97;;;5.17;;
7957;SDS011;4024;52.172;5.378;2023-07-02T13:37:36;9.23;;;5.10;;
7957;SDS011;4024;52.172;5.378;2023-07-02T13:40:02;9.07;;;5.33;;
7957;SDS011;4024;52.172;5.378;2023-07-02T13:42:29;6.97;;;4.70;;
7957;SDS011;4024;52.172;5.378;2023-07-02T13:44:55;6.80;;;4.80;;
7957;SDS011;4024;52.172;5.378;2023-07-02T13:47:21;7.73;;;4.40;;
7957;SDS011;4024;52.172;5.378;2023-07-02T13:49:46;7.93;;;5.00;;
7957;SDS011;4024;52.172;5.378;2023-07-02T13:52:12;10.57;;;5.50;;
7957;SDS011;4024;52.172;5.378;2023-07-02T13:54:38;8.67;;;5.10;;
7957;SDS011;4024;52.172;5.378;2023-07-02T13:57:04;9.30;;;5.20;;
7957;SDS011;4024;52.172;5.378;2023-07-02T13:59:30;11.23;;;4.97;;
7957;SDS011;4024;52.172;5.378;2023-07-02T14:01:55;7.63;;;4.97;;
7957;SDS011;4024;52.172;5.378;2023-07-02T14:04:21;11.33;;;5.30;;
7957;SDS011;4024;52.172;5.378;2023-07-02T14:06:47;10.13;;;5.20;;
7957;SDS011;4024;52.172;5.378;2023-07-02T14:09:13;10.17;;;4.83;;
7957;SDS011;4024;52.172;5.378;2023-07-02T14:11:40;8.60;;;5.30;;
7957;SDS011;4024;52.172;5.378;2023-07-02T14:14:07;8.27;;;5.10;;
7957;SDS011;4024;52.172;5.378;2023-07-02T14:16:33;9.40;;;5.53;;
7957;SDS011;4024;52.172;5.378;2023-07-02T14:18:58;8.13;;;5.03;;
7957;SDS011;4024;52.172;5.378;2023-07-02T14:21:24;8.80;;;6.03;;
7957;SDS011;4024;52.172;5.378;2023-07-02T14:23:50;8.60;;;5.20;;
7957;SDS011;4024;52.172;5.378;2023-07-02T14:26:16;9.40;;;5.53;;
7957;SDS011;4024;52.172;5.378;2023-07-02T14:28:42;8.60;;;5.60;;
7957;SDS011;4024;52.172;5.378;2023-07-02T14:31:07;9.50;;;5.40;;
7957;SDS011;4024;52.172;5.378;2023-07-02T14:33:34;10.10;;;5.77;;
7957;SDS011;4024;52.172;5.378;2023-07-02T14:36:01;9.67;;;5.27;;
7957;SDS011;4024;52.172;5.378;2023-07-02T14:38:27;11.93;;;5.63;;
7957;SDS011;4024;52.172;5.378;2023-07-02T14:40:54;6.83;;;5.03;;
7957;SDS011;4024;52.172;5.378;2023-07-02T14:43:24;7.47;;;5.03;;
7957;SDS011;4024;52.172;5.378;2023-07-02T14:45:52;8.13;;;4.80;;
7957;SDS011;4024;52.172;5.378;2023-07-02T14:48:19;7.03;;;4.80;;
7957;SDS011;4024;52.172;5.378;2023-07-02T14:50:45;8.17;;;4.80;;
7957;SDS011;4024;52.172;5.378;2023-07-02T14:53:13;7.10;;;4.80;;
7957;SDS011;4024;52.172;5.378;2023-07-02T14:55:39;8.60;;;5.00;;
7957;SDS011;4024;52.172;5.378;2023-07-02T14:58:06;7.80;;;4.33;;
7957;SDS011;4024;52.172;5.378;2023-07-02T15:00:31;9.43;;;5.20;;
7957;SDS011;4024;52.172;5.378;2023-07-02T15:02:57;7.00;;;4.80;;
7957;SDS011;4024;52.172;5.378;2023-07-02T15:05:23;6.83;;;4.47;;
7957;SDS011;4024;52.172;5.378;2023-07-02T15:07:49;9.83;;;4.50;;